createdAt,value
2022-09-11T00:00:57.672Z,99.90
2022-09-11T00:05:42.361Z,99.90
2022-09-11T00:10:28.311Z,99.90
2022-09-11T00:15:12.251Z,99.90
2022-09-11T00:19:55.593Z,99.90
2022-09-11T00:24:39.118Z,99.90
2022-09-11T00:29:23.947Z,99.90
2022-09-11T00:34:08.193Z,99.90
2022-09-11T00:38:51.906Z,99.90
2022-09-11T00:43:52.967Z,99.90
2022-09-11T00:48:38.618Z,99.90
2022-09-11T00:53:24.692Z,99.90
2022-09-11T00:58:13.666Z,99.90
2022-09-11T01:02:58.289Z,99.90
2022-09-11T01:07:44.396Z,99.90
2022-09-11T01:12:36.653Z,99.90
2022-09-11T01:17:28.354Z,99.90
2022-09-11T01:22:44.154Z,99.90
2022-09-11T01:27:41.835Z,99.90
2022-09-11T01:32:32.552Z,99.90
2022-09-11T01:37:24.780Z,99.90
2022-09-11T01:42:14.920Z,99.90
2022-09-11T01:47:00.501Z,99.90
2022-09-11T01:51:43.865Z,99.90
2022-09-11T01:56:32.023Z,99.90
2022-09-11T02:01:20.867Z,99.90
2022-09-11T02:06:09.189Z,99.90
2022-09-11T02:10:56.682Z,99.90
2022-09-11T02:15:44.212Z,99.90
2022-09-11T02:20:28.530Z,99.90
2022-09-11T02:25:13.903Z,99.90
2022-09-11T02:29:58.273Z,99.90
2022-09-11T02:34:45.519Z,99.90
2022-09-11T02:39:48.206Z,99.90
2022-09-11T02:44:39.017Z,99.90
2022-09-11T02:49:27.381Z,99.90
2022-09-11T02:54:20.951Z,99.90
2022-09-11T02:59:09.949Z,99.90
2022-09-11T03:03:54.768Z,99.90
2022-09-11T03:08:38.146Z,99.90
2022-09-11T03:13:21.537Z,99.90
2022-09-11T03:18:05.480Z,99.90
2022-09-11T03:22:50.309Z,99.90
2022-09-11T03:27:33.881Z,99.90
2022-09-11T03:32:17.448Z,99.90
2022-09-11T03:37:01.213Z,99.90
2022-09-11T03:41:46.033Z,99.90
2022-09-11T03:46:29.391Z,99.90
2022-09-11T03:51:12.814Z,99.90
2022-09-11T03:55:56.174Z,99.90
2022-09-11T04:00:44.347Z,99.90
2022-09-11T04:05:28.251Z,99.90
2022-09-11T04:10:11.994Z,99.90
2022-09-11T04:14:55.370Z,99.90
2022-09-11T04:19:40.132Z,99.90
2022-09-11T04:24:23.492Z,99.90
2022-09-11T04:29:06.813Z,99.90
2022-09-11T04:33:50.489Z,99.90
2022-09-11T04:38:35.723Z,99.90
2022-09-11T04:43:19.112Z,99.90
2022-09-11T04:48:02.662Z,99.90
2022-09-11T04:52:46.852Z,99.90
2022-09-11T04:57:32.521Z,99.90
2022-09-11T05:02:16.588Z,99.90
2022-09-11T05:07:00.046Z,99.90
2022-09-11T05:11:43.676Z,99.90
2022-09-11T05:16:29.729Z,99.90
2022-09-11T05:21:14.908Z,99.90
2022-09-11T05:25:59.336Z,99.90
2022-09-11T05:30:42.770Z,99.90
2022-09-11T05:35:32.078Z,99.90
2022-09-11T05:40:15.903Z,99.90
2022-09-11T05:44:59.295Z,99.90
2022-09-11T05:49:42.664Z,99.90
2022-09-11T05:54:27.532Z,99.90
2022-09-11T05:59:15.498Z,99.90
2022-09-11T06:03:58.987Z,99.90
2022-09-11T06:08:44.313Z,99.90
2022-09-11T06:13:31.929Z,99.90
2022-09-11T06:18:15.638Z,99.90
2022-09-11T06:22:59.770Z,99.90
2022-09-11T06:27:43.148Z,99.90
2022-09-11T06:32:28.097Z,99.90
2022-09-11T06:37:12.191Z,99.90
2022-09-11T06:41:55.573Z,99.90
2022-09-11T06:46:40.408Z,99.90
2022-09-11T06:51:25.301Z,99.90
2022-09-11T06:56:12.411Z,99.90
2022-09-11T07:00:56.051Z,99.90
2022-09-11T07:05:39.540Z,99.90
2022-09-11T07:10:24.865Z,99.90
2022-09-11T07:15:10.110Z,99.90
2022-09-11T07:19:53.638Z,99.90
2022-09-11T07:24:37.052Z,99.90
2022-09-11T07:29:22.521Z,99.90
2022-09-11T07:34:06.822Z,99.90
2022-09-11T07:38:51.575Z,99.90
2022-09-11T07:43:35.283Z,99.90
2022-09-11T07:48:20.064Z,99.90
2022-09-11T07:53:03.457Z,99.90
2022-09-11T07:57:47.373Z,99.90
2022-09-11T08:02:30.811Z,99.90
2022-09-11T08:07:17.353Z,99.90
2022-09-11T08:12:01.613Z,99.90
2022-09-11T08:16:46.095Z,99.90
2022-09-11T08:21:29.972Z,99.90
2022-09-11T08:26:17.446Z,99.90
2022-09-11T08:31:02.053Z,99.90
2022-09-11T08:35:45.591Z,99.90
2022-09-11T08:40:30.660Z,99.90
2022-09-11T08:45:19.775Z,99.90
2022-09-11T08:50:07.298Z,99.90
2022-09-11T08:54:50.808Z,99.90
2022-09-11T08:59:50.633Z,99.90
2022-09-11T09:04:59.507Z,99.90
2022-09-11T09:09:56.244Z,99.90
2022-09-11T09:14:56.857Z,99.90
2022-09-11T09:19:45.353Z,99.90
2022-09-11T09:24:35.737Z,99.90
2022-09-11T09:29:22.956Z,99.90
2022-09-11T09:34:09.970Z,99.90
2022-09-11T09:38:54.278Z,99.90
2022-09-11T09:43:48.857Z,99.90
2022-09-11T09:48:35.746Z,99.90
2022-09-11T09:53:28.675Z,99.90
2022-09-11T09:58:12.164Z,99.90
2022-09-11T10:02:58.812Z,99.90
2022-09-11T10:07:48.573Z,99.90
2022-09-11T10:12:32.323Z,99.90
2022-09-11T10:17:24.646Z,99.90
2022-09-11T10:22:30.614Z,99.90
2022-09-11T10:27:17.638Z,99.90
2022-09-11T10:32:04.192Z,99.90
2022-09-11T10:36:55.183Z,99.90
2022-09-11T10:41:50.003Z,99.90
2022-09-11T10:46:39.536Z,99.90
2022-09-11T10:51:24.051Z,99.90
2022-09-11T10:56:10.138Z,99.90
2022-09-11T11:00:55.023Z,99.90
2022-09-11T11:05:51.876Z,99.90
2022-09-11T11:10:45.188Z,99.90
2022-09-11T11:15:38.945Z,99.90
2022-09-11T11:20:33.944Z,99.90
2022-09-11T11:25:23.126Z,99.90
2022-09-11T11:30:17.450Z,99.90
2022-09-11T11:35:15.732Z,99.90
2022-09-11T11:40:06.341Z,99.90
2022-09-11T11:44:53.396Z,99.90
2022-09-11T11:49:50.476Z,99.90
2022-09-11T11:54:41.340Z,99.90
2022-09-11T11:59:32.241Z,99.90
2022-09-11T12:04:25.551Z,99.90
2022-09-11T12:09:10.984Z,99.90
2022-09-11T12:13:56.393Z,99.90
2022-09-11T12:18:42.445Z,99.90
2022-09-11T12:23:36.437Z,99.90
2022-09-11T12:28:25.457Z,99.90
2022-09-11T12:33:47.432Z,99.90
2022-09-11T12:38:38.239Z,99.90
2022-09-11T12:43:49.528Z,99.90
2022-09-11T12:48:38.900Z,99.90
2022-09-11T12:53:26.515Z,99.90
2022-09-11T12:58:36.525Z,99.90
2022-09-11T13:03:23.074Z,99.90
2022-09-11T13:08:11.136Z,99.90
2022-09-11T13:12:56.138Z,99.90
2022-09-11T13:17:48.423Z,99.10
2022-09-11T13:22:32.051Z,97.90
2022-09-11T13:27:24.122Z,99.90
2022-09-11T13:32:11.660Z,96.40
2022-09-11T13:36:58.791Z,98.60
2022-09-11T13:41:45.147Z,99.90
2022-09-11T13:46:30.660Z,99.00
2022-09-11T13:51:15.046Z,99.40
2022-09-11T13:55:59.989Z,99.10
2022-09-11T14:00:46.094Z,99.90
2022-09-11T14:05:32.055Z,98.50
2022-09-11T14:10:26.968Z,94.50
2022-09-11T14:15:22.619Z,93.50
2022-09-11T14:20:06.772Z,94.60
2022-09-11T14:24:58.091Z,92.70
2022-09-11T14:29:41.603Z,90.30
2022-09-11T14:34:28.689Z,88.00
2022-09-11T14:39:15.833Z,91.20
2022-09-11T14:43:59.321Z,87.40
2022-09-11T14:48:44.217Z,91.60
2022-09-11T14:53:34.503Z,93.00
2022-09-11T14:58:18.005Z,90.70
2022-09-11T15:03:01.585Z,92.20
2022-09-11T15:07:45.667Z,91.10
2022-09-11T15:12:30.469Z,92.80
2022-09-11T15:17:16.030Z,95.60
2022-09-11T15:22:00.005Z,96.10
2022-09-11T15:26:43.410Z,95.10
2022-09-11T15:31:29.338Z,95.70
2022-09-11T15:36:14.343Z,94.70
2022-09-11T15:40:58.398Z,95.70
2022-09-11T15:45:44.526Z,95.30
2022-09-11T15:50:30.434Z,95.30
2022-09-11T15:55:14.391Z,95.20
2022-09-11T15:59:57.966Z,94.70
2022-09-11T16:04:41.377Z,94.00
2022-09-11T16:09:28.372Z,94.70
2022-09-11T16:14:19.062Z,93.90
2022-09-11T16:19:03.426Z,95.50
2022-09-11T16:23:53.613Z,95.80
2022-09-11T16:28:41.871Z,96.90
2022-09-11T16:33:25.301Z,95.40
2022-09-11T16:38:09.307Z,96.30
2022-09-11T16:42:52.737Z,97.10
2022-09-11T16:47:37.564Z,97.30
2022-09-11T16:52:21.208Z,98.80
2022-09-11T16:57:04.946Z,99.90
2022-09-11T17:01:48.617Z,99.90
2022-09-11T17:06:34.044Z,99.90
2022-09-11T17:11:19.585Z,99.90
2022-09-11T17:16:04.086Z,99.90
2022-09-11T17:20:47.677Z,99.90
2022-09-11T17:25:33.126Z,99.90
2022-09-11T17:30:16.995Z,99.90
2022-09-11T17:35:00.518Z,99.90
2022-09-11T17:39:44.278Z,99.90
2022-09-11T17:44:29.296Z,99.90
2022-09-11T17:49:12.990Z,99.90
2022-09-11T17:53:59.118Z,99.90
2022-09-11T17:58:44.422Z,99.90
2022-09-11T18:03:31.483Z,99.90
2022-09-11T18:08:15.193Z,99.90
2022-09-11T18:13:06.837Z,99.90
2022-09-11T18:17:50.724Z,99.90
2022-09-11T18:22:41.995Z,99.90
2022-09-11T18:27:26.446Z,99.90
2022-09-11T18:32:12.893Z,99.90
2022-09-11T18:36:57.090Z,99.90
2022-09-11T18:41:43.875Z,99.90
2022-09-11T18:46:28.461Z,99.90
2022-09-11T18:51:13.112Z,99.90
2022-09-11T18:56:04.038Z,99.90
2022-09-11T19:00:49.552Z,99.90
2022-09-11T19:05:33.850Z,99.90
2022-09-11T19:10:17.491Z,99.90
2022-09-11T19:15:01.252Z,99.90
2022-09-11T19:19:46.910Z,99.90
2022-09-11T19:24:30.872Z,99.90
2022-09-11T19:29:16.013Z,99.90
2022-09-11T19:34:01.876Z,99.90
2022-09-11T19:38:49.942Z,99.90
2022-09-11T19:43:35.459Z,99.90
2022-09-11T19:48:19.324Z,99.90
2022-09-11T19:53:03.219Z,99.90
2022-09-11T19:57:48.261Z,99.90
2022-09-11T20:02:31.892Z,99.90
2022-09-11T20:07:15.464Z,99.90
2022-09-11T20:12:00.748Z,99.90
2022-09-11T20:16:46.094Z,99.90
2022-09-11T20:21:29.919Z,99.90
2022-09-11T20:26:17.246Z,99.90
2022-09-11T20:31:01.073Z,99.90
2022-09-11T20:35:46.724Z,99.90
2022-09-11T20:40:30.120Z,99.90
2022-09-11T20:45:13.691Z,99.90
2022-09-11T20:49:57.093Z,99.90
2022-09-11T20:54:41.939Z,99.90
2022-09-11T20:59:25.359Z,99.90
2022-09-11T21:04:08.760Z,99.90
2022-09-11T21:08:52.732Z,99.90
2022-09-11T21:13:40.075Z,99.90
2022-09-11T21:18:29.362Z,99.90
2022-09-11T21:23:19.408Z,99.90
2022-09-11T21:28:03.683Z,99.90
2022-09-11T21:32:49.038Z,99.90
2022-09-11T21:37:33.668Z,99.90
2022-09-11T21:42:18.432Z,99.90
2022-09-11T21:47:01.894Z,99.90
2022-09-11T21:51:46.942Z,99.90
2022-09-11T21:56:32.433Z,99.90
2022-09-11T22:01:15.946Z,99.90
2022-09-11T22:05:59.483Z,99.90
2022-09-11T22:10:45.385Z,99.90
2022-09-11T22:15:28.752Z,99.90
2022-09-11T22:20:12.239Z,99.90
2022-09-11T22:24:55.756Z,99.90
2022-09-11T22:29:44.005Z,99.90
2022-09-11T22:34:30.371Z,99.90
2022-09-11T22:39:13.831Z,99.90
2022-09-11T22:43:57.275Z,99.90
2022-09-11T22:48:42.309Z,99.90
2022-09-11T22:53:25.922Z,99.90
2022-09-11T22:58:09.267Z,99.90
2022-09-11T23:02:52.622Z,99.90
2022-09-11T23:07:38.704Z,99.90
2022-09-11T23:12:22.099Z,99.90
2022-09-11T23:17:05.612Z,99.90
2022-09-11T23:21:49.164Z,99.90
2022-09-11T23:26:34.426Z,99.90
2022-09-11T23:31:20.433Z,99.90
2022-09-11T23:36:06.584Z,99.90
2022-09-11T23:40:50.018Z,99.90
2022-09-11T23:45:34.843Z,99.90
2022-09-11T23:50:18.421Z,99.90
2022-09-11T23:55:02.458Z,99.90
2022-09-11T23:59:45.808Z,99.90
